sensor_id;sensor_type;location;lat;lon;timestamp;temperature;humidity
1524;DHT22;755;53.658;10.118;2023-08-12T00:00:46;18.70;99.90
1524;DHT22;755;53.658;10.118;2023-08-12T00:10:48;18.70;99.90
1524;DHT22;755;53.658;10.118;2023-08-12T00:20:53;18.70;99.90
1524;DHT22;755;53.658;10.118;2023-08-12T00:30:55;18.60;99.90
1524;DHT22;755;53.658;10.118;2023-08-12T00:40:59;18.60;99.90
1524;DHT22;755;53.658;10.118;2023-08-12T00:51:02;18.60;99.90
1524;DHT22;755;53.658;10.118;2023-08-12T01:01:08;18.60;99.90
1524;DHT22;755;53.658;10.118;2023-08-12T01:11:14;18.50;99.90
1524;DHT22;755;53.658;10.118;2023-08-12T01:21:24;18.50;99.90
1524;DHT22;755;53.658;10.118;2023-08-12T01:31:32;18.50;99.90
1524;DHT22;755;53.658;10.118;2023-08-12T01:41:36;18.50;99.90
1524;DHT22;755;53.658;10.118;2023-08-12T01:51:40;18.40;99.90
1524;DHT22;755;53.658;10.118;2023-08-12T02:01:42;18.30;99.90
1524;DHT22;755;53.658;10.118;2023-08-12T02:11:46;18.30;99.90
1524;DHT22;755;53.658;10.118;2023-08-12T02:21:48;18.20;99.90
1524;DHT22;755;53.658;10.118;2023-08-12T02:31:51;18.20;99.90
1524;DHT22;755;53.658;10.118;2023-08-12T02:41:53;18.10;99.90
1524;DHT22;755;53.658;10.118;2023-08-12T02:51:56;18.00;99.90
1524;DHT22;755;53.658;10.118;2023-08-12T03:01:58;17.90;99.90
1524;DHT22;755;53.658;10.118;2023-08-12T03:12:02;17.90;99.90
1524;DHT22;755;53.658;10.118;2023-08-12T03:22:04;17.70;99.90
1524;DHT22;755;53.658;10.118;2023-08-12T03:32:07;17.60;99.90
1524;DHT22;755;53.658;10.118;2023-08-12T03:42:09;17.50;99.90
1524;DHT22;755;53.658;10.118;2023-08-12T03:52:12;17.50;99.90
1524;DHT22;755;53.658;10.118;2023-08-12T04:02:14;17.50;99.90
1524;DHT22;755;53.658;10.118;2023-08-12T04:12:18;17.40;99.90
1524;DHT22;755;53.658;10.118;2023-08-12T04:22:20;17.40;99.90
1524;DHT22;755;53.658;10.118;2023-08-12T04:32:23;17.50;99.90
1524;DHT22;755;53.658;10.118;2023-08-12T04:42:25;17.20;99.90
1524;DHT22;755;53.658;10.118;2023-08-12T04:52:29;17.40;99.90
1524;DHT22;755;53.658;10.118;2023-08-12T05:02:31;17.50;99.90
1524;DHT22;755;53.658;10.118;2023-08-12T05:12:34;17.40;99.90
1524;DHT22;755;53.658;10.118;2023-08-12T05:22:36;17.40;99.90
1524;DHT22;755;53.658;10.118;2023-08-12T05:32:39;17.80;99.90
1524;DHT22;755;53.658;10.118;2023-08-12T05:42:41;17.80;99.90
1524;DHT22;755;53.658;10.118;2023-08-12T05:52:45;18.00;99.90
1524;DHT22;755;53.658;10.118;2023-08-12T06:02:47;18.00;99.90
1524;DHT22;755;53.658;10.118;2023-08-12T06:12:50;17.90;99.90
1524;DHT22;755;53.658;10.118;2023-08-12T06:22:52;18.10;99.90
1524;DHT22;755;53.658;10.118;2023-08-12T06:32:56;18.10;99.90
1524;DHT22;755;53.658;10.118;2023-08-12T06:42:57;17.80;99.90
1524;DHT22;755;53.658;10.118;2023-08-12T06:53:01;18.00;99.90
1524;DHT22;755;53.658;10.118;2023-08-12T07:03:03;18.20;99.90
1524;DHT22;755;53.658;10.118;2023-08-12T07:13:07;18.30;99.90
1524;DHT22;755;53.658;10.118;2023-08-12T07:23:09;18.10;99.90
1524;DHT22;755;53.658;10.118;2023-08-12T07:33:12;18.50;99.90
1524;DHT22;755;53.658;10.118;2023-08-12T07:43:14;18.60;99.90
1524;DHT22;755;53.658;10.118;2023-08-12T07:53:18;19.00;99.90
1524;DHT22;755;53.658;10.118;2023-08-12T08:03:20;19.00;99.90
1524;DHT22;755;53.658;10.118;2023-08-12T08:13:23;19.30;99.90
1524;DHT22;755;53.658;10.118;2023-08-12T08:23:25;19.40;99.90
1524;DHT22;755;53.658;10.118;2023-08-12T08:33:29;20.00;99.90
1524;DHT22;755;53.658;10.118;2023-08-12T08:43:32;20.40;99.90
1524;DHT22;755;53.658;10.118;2023-08-12T08:53:39;20.60;99.90
1524;DHT22;755;53.658;10.118;2023-08-12T09:03:42;20.50;99.90
1524;DHT22;755;53.658;10.118;2023-08-12T09:13:46;20.70;99.90
1524;DHT22;755;53.658;10.118;2023-08-12T09:23:49;20.90;99.90
1524;DHT22;755;53.658;10.118;2023-08-12T09:33:53;21.40;99.90
1524;DHT22;755;53.658;10.118;2023-08-12T09:43:56;21.70;99.90
1524;DHT22;755;53.658;10.118;2023-08-12T09:53:59;21.60;99.90
1524;DHT22;755;53.658;10.118;2023-08-12T10:04:05;21.70;99.90
1524;DHT22;755;53.658;10.118;2023-08-12T10:14:10;21.50;99.90
1524;DHT22;755;53.658;10.118;2023-08-12T10:24:14;21.70;99.90
1524;DHT22;755;53.658;10.118;2023-08-12T10:34:20;21.90;99.90
1524;DHT22;755;53.658;10.118;2023-08-12T10:44:26;21.60;99.90
1524;DHT22;755;53.658;10.118;2023-08-12T10:54:30;21.60;99.90
1524;DHT22;755;53.658;10.118;2023-08-12T11:04:37;21.80;99.90
1524;DHT22;755;53.658;10.118;2023-08-12T11:14:54;21.70;99.90
1524;DHT22;755;53.658;10.118;2023-08-12T11:24:59;22.40;99.90
1524;DHT22;755;53.658;10.118;2023-08-12T11:35:04;22.70;99.90
1524;DHT22;755;53.658;10.118;2023-08-12T11:45:08;22.50;99.90
1524;DHT22;755;53.658;10.118;2023-08-12T11:55:14;22.50;99.90
1524;DHT22;755;53.658;10.118;2023-08-12T12:05:16;22.00;99.90
1524;DHT22;755;53.658;10.118;2023-08-12T12:15:20;21.70;99.90
1524;DHT22;755;53.658;10.118;2023-08-12T12:25:22;21.50;99.90
1524;DHT22;755;53.658;10.118;2023-08-12T12:35:26;20.90;99.90
1524;DHT22;755;53.658;10.118;2023-08-12T12:45:28;20.70;99.90
1524;DHT22;755;53.658;10.118;2023-08-12T12:55:31;21.00;99.90
1524;DHT22;755;53.658;10.118;2023-08-12T13:05:34;21.50;99.90
1524;DHT22;755;53.658;10.118;2023-08-12T13:15:37;21.30;99.90
1524;DHT22;755;53.658;10.118;2023-08-12T13:25:39;21.00;99.90
1524;DHT22;755;53.658;10.118;2023-08-12T13:35:43;21.40;99.90
1524;DHT22;755;53.658;10.118;2023-08-12T13:45:48;21.30;99.90
1524;DHT22;755;53.658;10.118;2023-08-12T13:55:51;21.30;99.90
1524;DHT22;755;53.658;10.118;2023-08-12T14:05:54;20.90;99.90
1524;DHT22;755;53.658;10.118;2023-08-12T14:15:58;21.00;99.90
1524;DHT22;755;53.658;10.118;2023-08-12T14:26:00;21.00;99.90
1524;DHT22;755;53.658;10.118;2023-08-12T14:36:05;21.30;99.90
1524;DHT22;755;53.658;10.118;2023-08-12T14:46:08;21.40;99.90
1524;DHT22;755;53.658;10.118;2023-08-12T14:56:11;21.30;99.90
1524;DHT22;755;53.658;10.118;2023-08-12T15:06:13;21.30;99.90
1524;DHT22;755;53.658;10.118;2023-08-12T15:16:16;21.00;99.90
1524;DHT22;755;53.658;10.118;2023-08-12T15:26:18;20.80;99.90
1524;DHT22;755;53.658;10.118;2023-08-12T15:36:22;21.10;99.90
1524;DHT22;755;53.658;10.118;2023-08-12T15:46:24;21.40;99.90
1524;DHT22;755;53.658;10.118;2023-08-12T15:56:27;21.20;99.90
1524;DHT22;755;53.658;10.118;2023-08-12T16:06:29;21.30;99.90
1524;DHT22;755;53.658;10.118;2023-08-12T16:16:33;21.40;99.90
1524;DHT22;755;53.658;10.118;2023-08-12T16:26:35;21.10;99.90
1524;DHT22;755;53.658;10.118;2023-08-12T16:36:38;21.00;99.90
1524;DHT22;755;53.658;10.118;2023-08-12T16:46:40;21.10;99.90
1524;DHT22;755;53.658;10.118;2023-08-12T16:56:44;21.00;99.90
1524;DHT22;755;53.658;10.118;2023-08-12T17:06:46;20.80;99.90
1524;DHT22;755;53.658;10.118;2023-08-12T17:16:49;20.40;99.90
1524;DHT22;755;53.658;10.118;2023-08-12T17:26:51;20.30;99.90
1524;DHT22;755;53.658;10.118;2023-08-12T17:36:54;20.20;99.90
1524;DHT22;755;53.658;10.118;2023-08-12T17:46:56;20.00;99.90
1524;DHT22;755;53.658;10.118;2023-08-12T17:57:00;19.70;99.90
1524;DHT22;755;53.658;10.118;2023-08-12T18:07:02;19.60;99.90
1524;DHT22;755;53.658;10.118;2023-08-12T18:17:05;19.40;99.90
1524;DHT22;755;53.658;10.118;2023-08-12T18:27:07;19.30;99.90
1524;DHT22;755;53.658;10.118;2023-08-12T18:37:11;19.20;99.90
1524;DHT22;755;53.658;10.118;2023-08-12T18:47:13;19.20;99.90
1524;DHT22;755;53.658;10.118;2023-08-12T18:57:17;19.20;99.90
1524;DHT22;755;53.658;10.118;2023-08-12T19:07:19;19.10;99.90
1524;DHT22;755;53.658;10.118;2023-08-12T19:17:23;18.90;99.90
1524;DHT22;755;53.658;10.118;2023-08-12T19:27:26;19.00;99.90
1524;DHT22;755;53.658;10.118;2023-08-12T19:37:29;18.60;99.90
1524;DHT22;755;53.658;10.118;2023-08-12T19:47:36;18.30;99.90
1524;DHT22;755;53.658;10.118;2023-08-12T19:57:41;18.20;99.90
1524;DHT22;755;53.658;10.118;2023-08-12T20:07:44;18.00;99.90
1524;DHT22;755;53.658;10.118;2023-08-12T20:17:48;17.90;99.90
1524;DHT22;755;53.658;10.118;2023-08-12T20:27:54;17.80;99.90
1524;DHT22;755;53.658;10.118;2023-08-12T20:38:06;17.70;99.90
1524;DHT22;755;53.658;10.118;2023-08-12T20:48:18;17.60;99.90
1524;DHT22;755;53.658;10.118;2023-08-12T20:58:22;17.50;99.90
1524;DHT22;755;53.658;10.118;2023-08-12T21:08:25;17.40;99.90
1524;DHT22;755;53.658;10.118;2023-08-12T21:18:29;17.30;99.90
1524;DHT22;755;53.658;10.118;2023-08-12T21:28:31;17.30;99.90
1524;DHT22;755;53.658;10.118;2023-08-12T21:38:36;17.20;99.90
1524;DHT22;755;53.658;10.118;2023-08-12T21:48:39;17.00;99.90
1524;DHT22;755;53.658;10.118;2023-08-12T21:58:46;17.00;99.90
1524;DHT22;755;53.658;10.118;2023-08-12T22:09:08;17.00;99.90
1524;DHT22;755;53.658;10.118;2023-08-12T22:19:11;16.70;99.90
1524;DHT22;755;53.658;10.118;2023-08-12T22:29:13;16.50;99.90
1524;DHT22;755;53.658;10.118;2023-08-12T22:39:17;16.20;99.90
1524;DHT22;755;53.658;10.118;2023-08-12T22:49:21;15.90;99.90
1524;DHT22;755;53.658;10.118;2023-08-12T22:59:24;15.80;99.90
1524;DHT22;755;53.658;10.118;2023-08-12T23:09:26;15.60;99.90
1524;DHT22;755;53.658;10.118;2023-08-12T23:19:30;15.50;99.90
1524;DHT22;755;53.658;10.118;2023-08-12T23:29:32;15.50;99.90
1524;DHT22;755;53.658;10.118;2023-08-12T23:39:35;15.30;99.90
1524;DHT22;755;53.658;10.118;2023-08-12T23:49:37;15.20;99.90
1524;DHT22;755;53.658;10.118;2023-08-12T23:59:41;15.00;99.90
